createdAt,value
2018-05-09T00:01:48.761Z,3.50
2018-05-09T00:04:15.218Z,3.20
2018-05-09T00:06:41.646Z,3.97
2018-05-09T00:09:08.022Z,3.77
2018-05-09T00:11:35.875Z,3.80
2018-05-09T00:14:02.605Z,4.63
2018-05-09T00:16:28.981Z,3.77
2018-05-09T00:18:56.407Z,3.17
2018-05-09T00:21:23.472Z,3.90
2018-05-09T00:23:49.948Z,3.33
2018-05-09T00:26:16.390Z,3.87
2018-05-09T00:28:42.916Z,3.70
2018-05-09T00:31:09.351Z,3.17
2018-05-09T00:33:35.935Z,3.53
2018-05-09T00:36:03.159Z,3.50
2018-05-09T00:38:30.234Z,3.60
2018-05-09T00:40:57.389Z,3.90
2018-05-09T00:43:23.711Z,3.77
2018-05-09T00:45:50.014Z,4.20
2018-05-09T00:48:16.446Z,4.17
2018-05-09T00:50:42.782Z,3.47
2018-05-09T00:53:10.565Z,3.43
2018-05-09T00:55:37.804Z,3.63
2018-05-09T00:58:04.920Z,3.10
2018-05-09T01:00:31.296Z,3.90
2018-05-09T01:02:58.298Z,4.00
2018-05-09T01:05:24.727Z,3.50
2018-05-09T01:07:51.062Z,3.50
2018-05-09T01:10:17.586Z,3.27
2018-05-09T01:12:44.120Z,3.57
2018-05-09T01:15:10.663Z,3.43
2018-05-09T01:17:36.980Z,3.50
2018-05-09T01:20:03.549Z,3.00
2018-05-09T01:22:29.844Z,3.63
2018-05-09T01:24:56.158Z,3.30
2018-05-09T01:27:22.888Z,3.27
2018-05-09T01:29:49.242Z,2.97
2018-05-09T01:32:15.630Z,3.40
2018-05-09T01:34:42.030Z,4.73
2018-05-09T01:37:08.443Z,3.30
2018-05-09T01:39:34.745Z,3.40
2018-05-09T01:42:01.066Z,4.17
2018-05-09T01:44:27.426Z,3.10
2018-05-09T01:46:53.794Z,3.50
2018-05-09T01:49:20.925Z,3.63
2018-05-09T01:51:47.268Z,3.73
2018-05-09T01:54:13.783Z,3.60
2018-05-09T01:56:41.003Z,3.70
2018-05-09T01:59:07.385Z,3.70
2018-05-09T02:01:34.838Z,3.70
2018-05-09T02:04:01.984Z,3.80
2018-05-09T02:06:28.340Z,4.00
2018-05-09T02:08:54.768Z,3.90
2018-05-09T02:11:21.173Z,3.03
2018-05-09T02:13:47.579Z,3.90
2018-05-09T02:16:14.016Z,3.20
2018-05-09T02:18:40.549Z,3.33
2018-05-09T02:21:06.883Z,3.83
2018-05-09T02:23:33.344Z,3.37
2018-05-09T02:26:00.435Z,3.90
2018-05-09T02:28:26.762Z,3.70
2018-05-09T02:30:53.221Z,3.80
2018-05-09T02:33:19.616Z,3.87
2018-05-09T02:35:46.028Z,3.43
2018-05-09T02:38:13.104Z,3.40
2018-05-09T02:40:39.492Z,3.80
2018-05-09T02:43:06.722Z,4.00
2018-05-09T02:45:34.823Z,3.80
2018-05-09T02:48:01.922Z,3.30
2018-05-09T02:50:28.239Z,3.30
2018-05-09T02:52:54.681Z,4.73
2018-05-09T02:55:21.229Z,3.40
2018-05-09T02:57:47.704Z,3.90
2018-05-09T03:00:14.865Z,3.90
2018-05-09T03:02:41.225Z,4.30
2018-05-09T03:05:07.638Z,3.23
2018-05-09T03:07:34.209Z,3.60
2018-05-09T03:10:00.561Z,4.37
2018-05-09T03:12:26.970Z,4.00
2018-05-09T03:14:53.632Z,3.30
2018-05-09T03:17:20.719Z,4.23
2018-05-09T03:19:47.180Z,3.80
2018-05-09T03:22:13.552Z,3.60
2018-05-09T03:24:40.717Z,3.83
2018-05-09T03:27:07.092Z,3.60
2018-05-09T03:29:33.560Z,4.03
2018-05-09T03:32:00.707Z,4.00
2018-05-09T03:34:27.778Z,4.40
2018-05-09T03:36:54.180Z,3.93
2018-05-09T03:39:20.562Z,4.40
2018-05-09T03:41:47.227Z,3.70
2018-05-09T03:44:13.669Z,3.90
2018-05-09T03:46:40.767Z,4.27
2018-05-09T03:49:07.094Z,4.40
2018-05-09T03:51:33.794Z,3.90
2018-05-09T03:54:01.086Z,3.90
2018-05-09T03:56:27.435Z,4.00
2018-05-09T03:58:53.985Z,4.27
2018-05-09T04:01:21.137Z,4.20
2018-05-09T04:03:59.695Z,3.83
2018-05-09T04:06:39.471Z,3.83
2018-05-09T04:09:18.024Z,4.20
2018-05-09T04:11:44.396Z,4.70
2018-05-09T04:14:13.159Z,4.20
2018-05-09T04:16:40.343Z,3.90
2018-05-09T04:19:07.604Z,3.90
2018-05-09T04:21:34.721Z,3.83
2018-05-09T04:24:01.057Z,3.93
2018-05-09T04:26:28.283Z,4.60
2018-05-09T04:28:54.593Z,3.93
2018-05-09T04:31:20.936Z,3.67
2018-05-09T04:33:47.370Z,4.10
2018-05-09T04:36:14.067Z,4.83
2018-05-09T04:38:40.359Z,4.67
2018-05-09T04:41:06.795Z,4.43
2018-05-09T04:43:33.131Z,4.97
2018-05-09T04:45:59.538Z,4.30
2018-05-09T04:48:25.943Z,4.37
2018-05-09T04:50:52.623Z,4.67
2018-05-09T04:53:18.969Z,4.43
2018-05-09T04:55:45.439Z,4.47
2018-05-09T04:58:11.769Z,4.37
2018-05-09T05:00:38.266Z,4.23
2018-05-09T05:03:04.821Z,4.33
2018-05-09T05:05:31.289Z,4.60
2018-05-09T05:07:58.428Z,3.93
2018-05-09T05:10:24.823Z,4.80
2018-05-09T05:12:51.152Z,7.10
2018-05-09T05:15:17.608Z,10.87
2018-05-09T05:17:43.988Z,12.00
2018-05-09T05:20:10.483Z,8.83
2018-05-09T05:22:37.917Z,8.27
2018-05-09T05:25:04.359Z,6.53
2018-05-09T05:27:30.791Z,7.03
2018-05-09T05:29:57.217Z,5.80
2018-05-09T05:32:23.758Z,6.40
2018-05-09T05:34:50.110Z,6.07
2018-05-09T05:37:16.448Z,6.00
2018-05-09T05:39:42.956Z,5.50
2018-05-09T05:42:09.297Z,5.80
2018-05-09T05:44:35.799Z,5.93
2018-05-09T05:47:02.251Z,6.70
2018-05-09T05:49:28.635Z,5.80
2018-05-09T05:51:55.143Z,6.50
2018-05-09T05:54:21.428Z,8.87
2018-05-09T05:56:47.946Z,10.90
2018-05-09T05:59:14.365Z,9.40
2018-05-09T06:01:40.791Z,9.43
2018-05-09T06:04:07.175Z,9.80
2018-05-09T06:06:34.040Z,7.90
2018-05-09T06:09:00.547Z,7.30
2018-05-09T06:11:26.904Z,6.00
2018-05-09T06:13:54.328Z,5.40
2018-05-09T06:16:20.689Z,5.67
2018-05-09T06:18:47.206Z,5.90
2018-05-09T06:21:13.556Z,5.50
2018-05-09T06:23:40.625Z,5.97
2018-05-09T06:26:07.059Z,5.30
2018-05-09T06:28:33.742Z,5.47
2018-05-09T06:31:00.222Z,6.13
2018-05-09T06:33:26.542Z,5.33
2018-05-09T06:35:53.680Z,5.30
2018-05-09T06:38:20.189Z,5.87
2018-05-09T06:40:46.806Z,5.30
2018-05-09T06:43:13.138Z,5.57
2018-05-09T06:45:39.646Z,5.37
2018-05-09T06:48:06.072Z,5.47
2018-05-09T06:50:32.459Z,5.00
2018-05-09T06:52:59.001Z,5.73
2018-05-09T06:55:25.423Z,5.37
2018-05-09T06:57:51.811Z,5.50
2018-05-09T07:00:18.216Z,5.87
2018-05-09T07:02:47.407Z,5.47
2018-05-09T07:05:14.597Z,4.57
2018-05-09T07:07:41.171Z,3.97
2018-05-09T07:10:07.591Z,4.40
2018-05-09T07:12:34.202Z,4.33
2018-05-09T07:15:01.427Z,4.43
2018-05-09T07:17:28.565Z,4.30
2018-05-09T07:19:55.742Z,4.30
2018-05-09T07:22:22.098Z,4.10
2018-05-09T07:24:48.586Z,4.00
2018-05-09T07:27:15.279Z,4.50
2018-05-09T07:29:41.633Z,3.87
2018-05-09T07:32:08.048Z,4.23
2018-05-09T07:34:34.467Z,3.90
2018-05-09T07:37:00.798Z,4.60
2018-05-09T07:39:27.258Z,3.80
2018-05-09T07:41:54.382Z,3.30
2018-05-09T07:44:20.925Z,3.83
2018-05-09T07:46:47.361Z,4.40
2018-05-09T07:49:13.767Z,4.23
2018-05-09T07:51:40.148Z,4.20
2018-05-09T07:54:07.245Z,3.90
2018-05-09T07:56:35.245Z,5.00
2018-05-09T07:59:01.558Z,3.73
2018-05-09T08:01:28.101Z,4.50
2018-05-09T08:03:54.391Z,4.00
2018-05-09T08:06:20.766Z,4.40
2018-05-09T08:08:47.157Z,4.13
2018-05-09T08:11:13.566Z,4.27
2018-05-09T08:13:39.914Z,4.17
2018-05-09T08:16:06.382Z,4.60
2018-05-09T08:18:32.772Z,3.90
2018-05-09T08:20:59.248Z,4.10
2018-05-09T08:23:25.602Z,4.57
2018-05-09T08:25:52.711Z,3.90
2018-05-09T08:28:19.322Z,3.90
2018-05-09T08:30:45.761Z,3.80
2018-05-09T08:33:12.575Z,4.00
2018-05-09T08:35:38.965Z,4.50
2018-05-09T08:38:05.538Z,3.97
2018-05-09T08:40:32.900Z,4.57
2018-05-09T08:43:00.344Z,4.17
2018-05-09T08:45:27.560Z,3.80
2018-05-09T08:47:53.871Z,3.50
2018-05-09T08:50:20.304Z,3.53
2018-05-09T08:52:46.762Z,3.70
2018-05-09T08:55:13.174Z,3.23
2018-05-09T08:57:39.619Z,4.13
2018-05-09T09:00:06.014Z,3.70
2018-05-09T09:02:32.352Z,3.40
2018-05-09T09:04:58.823Z,3.83
2018-05-09T09:07:25.300Z,3.90
2018-05-09T09:09:51.662Z,4.27
2018-05-09T09:12:18.114Z,3.83
2018-05-09T09:14:44.573Z,4.47
2018-05-09T09:17:11.136Z,4.00
2018-05-09T09:19:37.541Z,4.40
2018-05-09T09:22:04.025Z,4.03
2018-05-09T09:24:30.421Z,4.50
2018-05-09T09:26:57.524Z,4.17
2018-05-09T09:29:23.988Z,5.07
2018-05-09T09:31:51.283Z,4.70
2018-05-09T09:34:17.789Z,3.93
2018-05-09T09:36:44.917Z,4.27
2018-05-09T09:39:12.078Z,3.20
2018-05-09T09:41:39.221Z,3.73
2018-05-09T09:44:06.277Z,3.83
2018-05-09T09:46:33.729Z,4.80
2018-05-09T09:49:00.110Z,5.77
2018-05-09T09:51:26.597Z,5.37
2018-05-09T09:53:53.670Z,4.60
2018-05-09T09:56:20.061Z,3.97
2018-05-09T09:58:47.223Z,3.80
2018-05-09T10:01:14.478Z,3.93
2018-05-09T10:03:41.642Z,4.93
2018-05-09T10:06:08.027Z,4.90
2018-05-09T10:08:34.552Z,5.93
2018-05-09T10:11:01.125Z,5.40
2018-05-09T10:13:28.780Z,4.60
2018-05-09T10:15:55.975Z,4.50
2018-05-09T10:18:22.438Z,4.90
2018-05-09T10:20:48.897Z,5.13
2018-05-09T10:23:15.689Z,4.80
2018-05-09T10:25:42.786Z,4.50
2018-05-09T10:28:09.318Z,4.80
2018-05-09T10:30:36.750Z,4.70
2018-05-09T10:33:03.277Z,4.17
2018-05-09T10:35:30.080Z,5.13
2018-05-09T10:37:56.661Z,5.03
2018-05-09T10:40:23.400Z,4.90
2018-05-09T10:42:51.196Z,3.83
2018-05-09T10:45:18.514Z,3.63
2018-05-09T10:47:45.084Z,3.63
2018-05-09T10:50:12.502Z,3.20
2018-05-09T10:52:38.967Z,3.60
2018-05-09T10:55:05.389Z,3.63
2018-05-09T10:57:31.946Z,3.47
2018-05-09T10:59:59.397Z,3.63
2018-05-09T11:02:26.725Z,3.67
2018-05-09T11:04:53.394Z,3.50
2018-05-09T11:07:20.997Z,3.00
2018-05-09T11:09:47.539Z,3.33
2018-05-09T11:12:14.201Z,3.97
2018-05-09T11:14:41.539Z,3.10
2018-05-09T11:17:08.013Z,3.20
2018-05-09T11:19:35.433Z,3.00
2018-05-09T11:22:01.869Z,3.00
2018-05-09T11:24:28.604Z,3.70
2018-05-09T11:26:55.144Z,3.00
2018-05-09T11:29:21.866Z,3.47
2018-05-09T11:31:48.433Z,3.60
2018-05-09T11:34:15.113Z,3.57
2018-05-09T11:36:41.592Z,3.80
2018-05-09T11:39:08.012Z,3.00
2018-05-09T11:41:35.255Z,4.00
2018-05-09T11:44:02.725Z,3.60
2018-05-09T11:46:29.258Z,4.10
2018-05-09T11:48:55.737Z,3.80
2018-05-09T11:51:22.978Z,3.40
2018-05-09T11:53:50.249Z,3.70
2018-05-09T11:56:16.625Z,3.63
2018-05-09T11:58:43.109Z,3.60
2018-05-09T12:01:09.508Z,3.90
2018-05-09T12:03:36.157Z,3.77
2018-05-09T12:06:02.722Z,3.37
2018-05-09T12:08:29.394Z,4.20
2018-05-09T12:10:56.050Z,3.53
2018-05-09T12:13:22.993Z,4.00
2018-05-09T12:15:49.623Z,3.80
2018-05-09T12:18:16.075Z,3.50
2018-05-09T12:20:42.512Z,3.47
2018-05-09T12:23:08.860Z,3.30
2018-05-09T12:25:36.280Z,3.10
2018-05-09T12:28:02.622Z,3.80
2018-05-09T12:30:29.044Z,3.63
2018-05-09T12:32:55.488Z,4.13
2018-05-09T12:35:22.924Z,3.80
2018-05-09T12:37:49.307Z,3.30
2018-05-09T12:40:16.332Z,3.27
2018-05-09T12:42:42.677Z,3.90
2018-05-09T12:45:09.898Z,3.60
2018-05-09T12:47:36.243Z,3.50
2018-05-09T12:50:03.375Z,3.40
2018-05-09T12:52:29.736Z,3.40
2018-05-09T12:54:56.983Z,4.07
2018-05-09T12:57:24.296Z,3.57
2018-05-09T12:59:50.587Z,3.40
2018-05-09T13:02:17.076Z,3.87
2018-05-09T13:04:43.457Z,3.40
2018-05-09T13:07:09.962Z,3.77
2018-05-09T13:09:36.372Z,3.43
2018-05-09T13:12:02.844Z,3.67
2018-05-09T13:14:29.342Z,3.47
2018-05-09T13:16:56.111Z,3.43
2018-05-09T13:19:23.360Z,3.23
2018-05-09T13:21:49.736Z,3.27
2018-05-09T13:24:16.098Z,3.70
2018-05-09T13:26:42.628Z,3.30
2018-05-09T13:29:09.006Z,3.20
2018-05-09T13:31:36.845Z,3.33
2018-05-09T13:34:03.405Z,3.63
2018-05-09T13:36:29.958Z,3.90
2018-05-09T13:38:56.540Z,3.90
2018-05-09T13:41:23.471Z,3.60
2018-05-09T13:43:49.996Z,3.47
2018-05-09T13:46:16.428Z,3.47
2018-05-09T13:48:42.889Z,3.87
2018-05-09T13:51:09.648Z,3.63
2018-05-09T13:53:37.072Z,3.50
2018-05-09T13:56:03.552Z,3.67
2018-05-09T13:58:29.983Z,3.30
2018-05-09T14:00:56.366Z,3.67
2018-05-09T14:03:22.786Z,3.43
2018-05-09T14:05:49.340Z,3.77
2018-05-09T14:08:16.827Z,3.17
2018-05-09T14:10:43.953Z,3.30
2018-05-09T14:13:10.467Z,3.23
2018-05-09T14:15:36.887Z,3.90
2018-05-09T14:18:04.010Z,4.00
2018-05-09T14:20:30.525Z,3.10
2018-05-09T14:22:57.887Z,3.70
2018-05-09T14:25:24.483Z,4.43
2018-05-09T14:27:50.930Z,4.00
2018-05-09T14:30:17.316Z,3.87
2018-05-09T14:32:43.810Z,3.93
2018-05-09T14:35:11.128Z,3.43
2018-05-09T14:37:37.564Z,3.60
2018-05-09T14:40:03.973Z,4.43
2018-05-09T14:42:30.645Z,4.00
2018-05-09T14:44:57.090Z,4.13
2018-05-09T14:47:23.621Z,3.87
2018-05-09T14:49:50.058Z,3.90
2018-05-09T14:52:16.571Z,3.97
2018-05-09T14:54:43.000Z,4.40
2018-05-09T14:57:09.343Z,4.10
2018-05-09T14:59:35.726Z,4.07
2018-05-09T15:02:02.300Z,3.90
2018-05-09T15:04:28.785Z,3.47
2018-05-09T15:06:55.168Z,3.83
2018-05-09T15:09:21.539Z,3.93
2018-05-09T15:11:48.740Z,4.23
2018-05-09T15:14:15.755Z,3.70
2018-05-09T15:16:42.554Z,4.00
2018-05-09T15:19:10.084Z,4.47
2018-05-09T15:21:36.630Z,4.47
2018-05-09T15:24:03.216Z,4.27
2018-05-09T15:26:29.909Z,4.07
2018-05-09T15:28:56.379Z,4.20
2018-05-09T15:31:22.800Z,4.50
2018-05-09T15:33:49.874Z,4.43
2018-05-09T15:36:16.372Z,3.80
2018-05-09T15:38:43.911Z,3.77
2018-05-09T15:41:10.456Z,3.90
2018-05-09T15:43:37.025Z,3.80
2018-05-09T15:46:03.421Z,3.87
2018-05-09T15:48:29.794Z,4.00
2018-05-09T15:50:56.228Z,3.90
2018-05-09T15:53:22.680Z,3.70
2018-05-09T15:55:49.673Z,3.63
2018-05-09T15:58:16.616Z,3.83
2018-05-09T16:00:42.982Z,3.90
2018-05-09T16:03:09.670Z,4.03
2018-05-09T16:05:36.096Z,4.40
2018-05-09T16:08:02.501Z,3.70
2018-05-09T16:10:29.127Z,3.97
2018-05-09T16:12:55.717Z,4.40
2018-05-09T16:15:22.291Z,4.47
2018-05-09T16:17:48.822Z,4.10
2018-05-09T16:20:15.394Z,4.67
2018-05-09T16:22:41.943Z,3.57
2018-05-09T16:25:09.084Z,4.10
2018-05-09T16:27:35.448Z,3.93
2018-05-09T16:30:01.993Z,4.10
2018-05-09T16:32:29.527Z,3.50
2018-05-09T16:34:56.119Z,4.03
2018-05-09T16:37:22.493Z,3.80
2018-05-09T16:39:49.121Z,3.50
2018-05-09T16:42:15.689Z,4.00
2018-05-09T16:44:43.074Z,3.87
2018-05-09T16:47:09.718Z,4.20
2018-05-09T16:49:36.329Z,4.03
2018-05-09T16:52:03.350Z,2.90
2018-05-09T16:54:29.901Z,3.80
2018-05-09T16:56:57.010Z,3.67
2018-05-09T16:59:23.853Z,3.60
2018-05-09T17:01:50.739Z,4.00
2018-05-09T17:04:17.184Z,4.07
2018-05-09T17:06:43.811Z,4.50
2018-05-09T17:09:11.087Z,4.20
2018-05-09T17:11:37.604Z,5.03
2018-05-09T17:14:04.084Z,4.17
2018-05-09T17:16:30.648Z,3.50
2018-05-09T17:18:57.104Z,3.80
2018-05-09T17:21:36.299Z,4.47
2018-05-09T17:24:02.642Z,3.50
2018-05-09T17:26:29.263Z,3.30
2018-05-09T17:28:55.917Z,3.43
2018-05-09T17:31:22.242Z,3.60
2018-05-09T17:33:48.616Z,3.83
2018-05-09T17:36:15.004Z,2.60
2018-05-09T17:38:41.529Z,3.00
2018-05-09T17:41:07.994Z,3.47
2018-05-09T17:43:35.216Z,2.80
2018-05-09T17:46:01.885Z,2.80
2018-05-09T17:48:29.269Z,3.03
2018-05-09T17:50:55.724Z,2.90
2018-05-09T17:53:22.615Z,2.80
2018-05-09T17:55:50.228Z,3.00
2018-05-09T17:58:17.806Z,3.10
2018-05-09T18:00:45.666Z,2.97
2018-05-09T18:03:12.574Z,3.10
2018-05-09T18:05:39.223Z,2.50
2018-05-09T18:08:05.645Z,2.90
2018-05-09T18:10:32.089Z,2.80
2018-05-09T18:12:58.584Z,3.00
2018-05-09T18:15:25.808Z,3.70
2018-05-09T18:17:52.220Z,3.47
2018-05-09T18:20:18.656Z,3.40
2018-05-09T18:22:45.409Z,7.60
2018-05-09T18:25:11.932Z,5.10
2018-05-09T18:27:38.217Z,4.80
2018-05-09T18:30:04.755Z,6.67
2018-05-09T18:32:31.302Z,4.07
2018-05-09T18:34:57.656Z,4.40
2018-05-09T18:37:24.052Z,4.20
2018-05-09T18:39:50.591Z,7.03
2018-05-09T18:42:17.019Z,6.20
2018-05-09T18:44:43.564Z,5.10
2018-05-09T18:47:10.231Z,5.33
2018-05-09T18:49:36.596Z,5.37
2018-05-09T18:52:03.397Z,6.33
2018-05-09T18:54:29.769Z,6.73
2018-05-09T18:56:57.101Z,5.50
2018-05-09T18:59:23.628Z,6.43
2018-05-09T19:01:50.236Z,5.90
2018-05-09T19:04:16.793Z,5.37
2018-05-09T19:06:43.293Z,11.90
2018-05-09T19:09:09.732Z,7.10
2018-05-09T19:11:38.250Z,8.33
2018-05-09T19:14:04.647Z,6.40
2018-05-09T19:16:31.026Z,6.50
2018-05-09T19:18:58.130Z,6.83
2018-05-09T19:21:24.682Z,6.40
2018-05-09T19:23:51.144Z,6.00
2018-05-09T19:26:17.459Z,6.43
2018-05-09T19:28:43.867Z,6.03
2018-05-09T19:31:11.182Z,7.47
2018-05-09T19:33:37.489Z,6.70
2018-05-09T19:36:04.935Z,8.40
2018-05-09T19:38:32.154Z,6.60
2018-05-09T19:40:58.561Z,7.30
2018-05-09T19:43:24.878Z,7.70
2018-05-09T19:45:51.420Z,7.47
2018-05-09T19:48:18.781Z,7.30
2018-05-09T19:50:45.655Z,6.90
2018-05-09T19:53:12.328Z,6.47
2018-05-09T19:55:39.499Z,6.90
2018-05-09T19:58:05.810Z,7.20
2018-05-09T20:00:33.230Z,7.00
2018-05-09T20:02:59.680Z,7.20
2018-05-09T20:05:26.200Z,7.40
2018-05-09T20:07:52.707Z,7.40
2018-05-09T20:10:19.687Z,7.20
2018-05-09T20:12:46.210Z,7.70
2018-05-09T20:15:12.632Z,7.20
2018-05-09T20:17:39.011Z,7.33
2018-05-09T20:20:07.027Z,7.10
2018-05-09T20:22:33.404Z,6.90
2018-05-09T20:25:00.612Z,7.43
2018-05-09T20:27:27.126Z,7.83
2018-05-09T20:29:53.588Z,7.50
2018-05-09T20:32:32.244Z,7.27
2018-05-09T20:34:59.452Z,7.57
2018-05-09T20:37:25.797Z,7.50
2018-05-09T20:39:52.126Z,6.80
2018-05-09T20:42:18.459Z,6.60
2018-05-09T20:44:44.842Z,8.07
2018-05-09T20:47:11.415Z,7.10
2018-05-09T20:49:37.894Z,8.20
2018-05-09T20:52:05.230Z,7.47
2018-05-09T20:54:33.054Z,8.70
2018-05-09T20:56:59.515Z,7.63
2018-05-09T20:59:26.605Z,7.07
2018-05-09T21:01:52.984Z,6.93
2018-05-09T21:04:19.495Z,7.40
2018-05-09T21:06:46.095Z,7.17
2018-05-09T21:09:13.382Z,7.97
2018-05-09T21:11:39.766Z,7.03
2018-05-09T21:14:07.097Z,6.57
2018-05-09T21:16:33.721Z,7.07
2018-05-09T21:19:00.117Z,7.70
2018-05-09T21:21:26.807Z,7.50
2018-05-09T21:23:53.441Z,7.37
2018-05-09T21:26:19.886Z,6.40
2018-05-09T21:28:47.038Z,6.03
2018-05-09T21:31:13.484Z,6.57
2018-05-09T21:33:40.654Z,4.97
2018-05-09T21:36:07.205Z,4.90
2018-05-09T21:38:33.649Z,4.93
2018-05-09T21:41:00.004Z,5.00
2018-05-09T21:43:26.531Z,5.40
2018-05-09T21:45:52.851Z,5.20
2018-05-09T21:48:19.414Z,4.97
2018-05-09T21:50:45.955Z,5.77
2018-05-09T21:53:13.213Z,5.30
2018-05-09T21:55:40.579Z,4.73
2018-05-09T21:58:07.028Z,5.27
2018-05-09T22:00:33.524Z,4.03
2018-05-09T22:02:59.796Z,5.07
2018-05-09T22:05:26.290Z,4.30
2018-05-09T22:07:53.843Z,4.47
2018-05-09T22:10:21.018Z,4.73
2018-05-09T22:12:48.269Z,4.60
2018-05-09T22:15:14.947Z,5.37
2018-05-09T22:17:41.332Z,5.70
2018-05-09T22:20:07.727Z,5.30
2018-05-09T22:22:34.186Z,4.90
2018-05-09T22:25:01.518Z,4.83
2018-05-09T22:27:28.020Z,5.10
2018-05-09T22:29:54.552Z,5.07
2018-05-09T22:32:21.243Z,5.13
2018-05-09T22:34:48.402Z,5.20
2018-05-09T22:37:15.715Z,5.13
2018-05-09T22:39:42.082Z,4.43
2018-05-09T22:42:09.363Z,5.43
2018-05-09T22:44:35.779Z,5.40
2018-05-09T22:47:02.229Z,5.40
2018-05-09T22:49:28.763Z,5.17
2018-05-09T22:51:55.179Z,5.20
2018-05-09T22:54:21.509Z,5.47
2018-05-09T22:56:48.043Z,5.77
2018-05-09T22:59:14.653Z,5.87
2018-05-09T23:01:41.808Z,5.70
2018-05-09T23:04:08.942Z,5.50
2018-05-09T23:06:35.827Z,5.83
2018-05-09T23:09:02.518Z,5.60
2018-05-09T23:11:28.939Z,5.33
2018-05-09T23:13:56.490Z,5.17
2018-05-09T23:16:22.926Z,5.80
2018-05-09T23:18:49.293Z,5.20
2018-05-09T23:21:16.414Z,5.47
2018-05-09T23:23:42.837Z,5.40
2018-05-09T23:26:09.985Z,4.77
2018-05-09T23:28:36.495Z,5.00
2018-05-09T23:31:02.979Z,5.10
2018-05-09T23:33:29.433Z,4.90
2018-05-09T23:35:56.636Z,5.17
2018-05-09T23:38:23.026Z,5.60
2018-05-09T23:40:49.400Z,5.40
2018-05-09T23:43:15.943Z,4.90
2018-05-09T23:45:43.947Z,5.03
2018-05-09T23:48:11.358Z,5.20
2018-05-09T23:50:37.814Z,4.67
2018-05-09T23:53:04.350Z,5.00
2018-05-09T23:55:30.921Z,5.23
2018-05-09T23:57:57.324Z,4.50
